Time;durP1;ratioP1;P1;durP2;ratioP2;P2;SDS_P1;SDS_P2;PMS_P1;PMS_P2;Temp;Humidity;BMP_temperature;BMP_pressure;BME280_temperature;BME280_humidity;BME280_pressure;Samples;Min_cycle;Max_cycle;Signal;HPM_P1;HPM_P2
2023/04/01 00:02:16;;;;;;;;;2.00;1.00;;;;;-147.17;100.00;-15917.19;5049045;28;51088;-59
2023/04/01 00:04:42;;;;;;;;;0.00;0.00;;;;;-147.17;100.00;-15917.19;5039582;28;52131;-59
2023/04/01 00:07:08;;;;;;;;;0.00;0.00;;;;;-147.17;100.00;-15917.19;5041549;28;51130;-58
2023/04/01 00:09:34;;;;;;;;;0.00;0.00;;;;;-147.17;100.00;-15917.19;5042648;28;50951;-59
2023/04/01 00:11:59;;;;;;;;;0.33;0.33;;;;;-147.17;100.00;-15917.19;5052767;28;50939;-58
2023/04/01 00:14:25;;;;;;;;;1.00;1.00;;;;;-147.17;100.00;-15917.19;5046167;28;51184;-58
2023/04/01 00:16:50;;;;;;;;;6.25;5.75;;;;;-147.17;100.00;-15917.19;5047411;28;51281;-58
2023/04/01 00:19:15;;;;;;;;;2.00;2.00;;;;;-147.17;100.00;-15917.19;5046132;28;50864;-56
2023/04/01 00:21:41;;;;;;;;;1.00;1.00;;;;;-147.17;100.00;-15917.19;5049575;28;51133;-57
2023/04/01 00:24:07;;;;;;;;;0.00;0.00;;;;;-147.17;100.00;-15917.19;5050238;28;51690;-59
2023/04/01 00:26:32;;;;;;;;;1.00;0.00;;;;;-147.17;100.00;-15917.19;5042099;28;51224;-57
2023/04/01 00:28:58;;;;;;;;;1.00;0.00;;;;;-147.17;100.00;-15917.19;5051690;28;51135;-58
2023/04/01 00:31:23;;;;;;;;;1.67;1.00;;;;;-147.17;100.00;-15917.19;5048029;28;51177;-58
2023/04/01 00:33:49;;;;;;;;;1.00;1.00;;;;;-147.17;100.00;-15917.19;5051512;28;51211;-58
2023/04/01 00:36:17;;;;;;;;;4.00;2.00;;;;;-147.17;100.00;-15917.19;5042196;28;51131;-57
2023/04/01 00:38:43;;;;;;;;;0.00;0.00;;;;;-147.17;100.00;-15917.19;5036117;28;51227;-57
2023/04/01 00:41:14;;;;;;;;;2.00;1.00;;;;;-147.17;100.00;-15917.19;5051394;28;50967;-59
2023/04/01 00:43:41;;;;;;;;;1.33;0.00;;;;;-147.17;100.00;-15917.19;5050390;28;51921;-59
2023/04/01 00:46:06;;;;;;;;;0.00;0.00;;;;;-147.17;100.00;-15917.19;5052204;28;51169;-59
2023/04/01 00:48:39;;;;;;;;;1.00;0.00;;;;;-147.17;100.00;-15917.19;5043337;28;51148;-58
2023/04/01 00:51:09;;;;;;;;;1.00;1.00;;;;;-147.17;100.00;-15917.19;5049132;28;51409;-58
2023/04/01 00:53:40;;;;;;;;;0.00;0.00;;;;;-147.17;100.00;-15917.19;5044827;28;51185;-58
2023/04/01 00:56:11;;;;;;;;;0.67;0.00;;;;;-147.17;100.00;-15917.19;5030675;28;51159;-58
2023/04/01 00:58:43;;;;;;;;;1.00;1.00;;;;;-147.17;100.00;-15917.19;5034850;28;51191;-59
2023/04/01 01:01:09;;;;;;;;;1.67;1.00;;;;;-147.17;100.00;-15917.19;5051544;28;50950;-58
2023/04/01 01:03:35;;;;;;;;;1.00;1.00;;;;;-147.17;100.00;-15917.19;5045355;28;51119;-58
2023/04/01 01:06:12;;;;;;;;;0.00;0.00;;;;;-147.17;100.00;-15917.19;5042804;28;51165;-58
2023/04/01 01:08:49;;;;;;;;;0.00;0.00;;;;;-147.17;100.00;-15917.19;5040063;28;51143;-58
2023/04/01 01:11:26;;;;;;;;;1.33;0.67;;;;;-147.17;100.00;-15917.19;5045553;28;51331;-58
2023/04/01 01:14:34;;;;;;;;;0.67;0.00;;;;;-147.17;100.00;-15917.19;5043794;28;51994;-58
2023/04/01 01:17:12;;;;;;;;;0.00;0.00;;;;;-147.17;100.00;-15917.19;5036318;28;51244;-59
2023/04/01 01:19:47;;;;;;;;;2.00;0.33;;;;;-147.17;100.00;-15917.19;5033001;28;50982;-59
2023/04/01 01:22:52;;;;;;;;;0.00;0.00;;;;;-147.17;100.00;-15917.19;5047841;28;51115;-59
2023/04/01 01:25:51;;;;;;;;;1.33;1.33;;;;;-147.17;100.00;-15917.19;5032626;28;51839;-60
2023/04/01 01:28:31;;;;;;;;;0.00;0.00;;;;;-147.17;100.00;-15917.19;5033405;28;51081;-59
2023/04/01 01:31:18;;;;;;;;;1.00;0.00;;;;;-147.17;100.00;-15917.19;5048827;28;51193;-58
2023/04/01 01:34:13;;;;;;;;;0.33;0.33;;;;;-147.17;100.00;-15917.19;5035476;28;51343;-58
2023/04/01 01:36:44;;;;;;;;;0.00;0.00;;;;;-147.17;100.00;-15917.19;5048916;28;52335;-58
2023/04/01 01:39:13;;;;;;;;;1.67;1.00;;;;;-147.17;100.00;-15917.19;5048990;28;51197;-59
2023/04/01 01:41:42;;;;;;;;;1.00;0.00;;;;;-147.17;100.00;-15917.19;5051094;28;51245;-58
2023/04/01 01:44:11;;;;;;;;;1.00;0.00;;;;;-147.17;100.00;-15917.19;5048744;28;51125;-60
2023/04/01 01:46:39;;;;;;;;;0.00;0.00;;;;;-147.17;100.00;-15917.19;5036829;28;52044;-59
2023/04/01 01:49:08;;;;;;;;;0.00;0.00;;;;;-147.17;100.00;-15917.19;5038726;28;51167;-57
2023/04/01 01:51:34;;;;;;;;;0.67;0.00;;;;;-147.17;100.00;-15917.19;5038375;28;51287;-58
2023/04/01 01:53:59;;;;;;;;;1.00;1.00;;;;;-147.17;100.00;-15917.19;5038359;28;50982;-58
2023/04/01 01:56:29;;;;;;;;;0.00;0.00;;;;;-147.17;100.00;-15917.19;5049093;28;51077;-57
2023/04/01 01:59:03;;;;;;;;;0.67;0.67;;;;;-147.17;100.00;-15917.19;5042437;28;51260;-59
2023/04/01 02:01:32;;;;;;;;;1.00;1.00;;;;;-147.17;100.00;-15917.19;5052981;28;51428;-59
2023/04/01 02:03:58;;;;;;;;;1.00;1.00;;;;;-147.17;100.00;-15917.19;5038798;28;52889;-59
2023/04/01 02:06:28;;;;;;;;;1.00;1.00;;;;;-147.17;100.00;-15917.19;5036533;28;52172;-59
2023/04/01 02:08:58;;;;;;;;;0.67;0.00;;;;;-147.17;100.00;-15917.19;5038605;28;53159;-58
2023/04/01 02:11:33;;;;;;;;;0.00;0.00;;;;;-147.17;100.00;-15917.19;5042837;28;50983;-59
2023/04/01 02:14:05;;;;;;;;;0.00;0.00;;;;;-147.17;100.00;-15917.19;5033488;28;51338;-58
2023/04/01 02:16:40;;;;;;;;;1.33;0.33;;;;;-147.17;100.00;-15917.19;5045222;28;51814;-59
2023/04/01 02:19:08;;;;;;;;;1.00;0.00;;;;;-147.17;100.00;-15917.19;5034703;28;51156;-61
2023/04/01 02:21:35;;;;;;;;;0.33;0.33;;;;;-147.17;100.00;-15917.19;5043342;28;51228;-58
2023/04/01 02:24:05;;;;;;;;;1.33;0.00;;;;;-147.17;100.00;-15917.19;5045176;28;50918;-59
2023/04/01 02:26:31;;;;;;;;;0.67;0.00;;;;;-147.17;100.00;-15917.19;5048686;28;54169;-59
2023/04/01 02:28:58;;;;;;;;;1.00;0.00;;;;;-147.17;100.00;-15917.19;5038405;28;51279;-59
2023/04/01 02:31:25;;;;;;;;;0.00;0.00;;;;;-147.17;100.00;-15917.19;5036622;28;51039;-59
2023/04/01 02:33:51;;;;;;;;;1.00;0.00;;;;;-147.17;100.00;-15917.19;5032220;28;51225;-58
2023/04/01 02:36:20;;;;;;;;;0.33;0.00;;;;;-147.17;100.00;-15917.19;5033125;28;51111;-58
2023/04/01 02:38:47;;;;;;;;;1.00;0.00;;;;;-147.17;100.00;-15917.19;5038981;28;51042;-58
2023/04/01 02:41:13;;;;;;;;;1.00;1.00;;;;;-147.17;100.00;-15917.19;5045392;28;51145;-58
2023/04/01 02:43:39;;;;;;;;;1.67;0.00;;;;;-147.17;100.00;-15917.19;5032482;28;51095;-58
2023/04/01 02:46:04;;;;;;;;;1.00;1.00;;;;;-147.17;100.00;-15917.19;5048487;28;51341;-59
2023/04/01 02:48:30;;;;;;;;;2.00;0.00;;;;;-147.17;100.00;-15917.19;5045655;28;51157;-59
2023/04/01 02:50:55;;;;;;;;;1.00;0.00;;;;;-147.17;100.00;-15917.19;5044067;28;51084;-58
2023/04/01 02:53:21;;;;;;;;;1.00;0.00;;;;;-147.17;100.00;-15917.19;5036365;28;51154;-58
2023/04/01 02:55:50;;;;;;;;;0.00;0.00;;;;;-147.17;100.00;-15917.19;5044950;28;52266;-59
2023/04/01 02:58:15;;;;;;;;;0.33;0.00;;;;;-147.17;100.00;-15917.19;5044226;28;51153;-58
2023/04/01 03:00:41;;;;;;;;;0.67;0.00;;;;;-147.17;100.00;-15917.19;5047370;28;51204;-58
2023/04/01 03:03:06;;;;;;;;;1.00;1.00;;;;;-147.17;100.00;-15917.19;5053042;28;51121;-58
2023/04/01 03:05:32;;;;;;;;;0.00;0.00;;;;;-147.17;100.00;-15917.19;5055343;28;51832;-59
2023/04/01 03:07:57;;;;;;;;;0.33;0.00;;;;;-147.17;100.00;-15917.19;5048240;28;51034;-58
2023/04/01 03:10:22;;;;;;;;;0.00;0.00;;;;;-147.17;100.00;-15917.19;5042504;28;51179;-58
2023/04/01 03:12:48;;;;;;;;;0.33;0.00;;;;;-147.17;100.00;-15917.19;5054631;28;51056;-58
2023/04/01 03:15:14;;;;;;;;;0.33;0.00;;;;;-147.17;100.00;-15917.19;5050301;28;51903;-60
2023/04/01 03:17:41;;;;;;;;;0.00;0.00;;;;;-147.17;100.00;-15917.19;5034921;28;50873;-58
2023/04/01 03:20:08;;;;;;;;;1.67;0.00;;;;;-147.17;100.00;-15917.19;5047800;28;51167;-59
2023/04/01 03:22:34;;;;;;;;;0.00;0.00;;;;;-147.17;100.00;-15917.19;5051255;28;51313;-59
2023/04/01 03:25:00;;;;;;;;;0.00;0.00;;;;;-147.17;100.00;-15917.19;5053343;28;51912;-58
2023/04/01 03:27:25;;;;;;;;;0.00;0.00;;;;;-147.17;100.00;-15917.19;5038844;28;50989;-57
2023/04/01 03:29:51;;;;;;;;;0.00;0.00;;;;;-147.17;100.00;-15917.19;5054730;28;51157;-58
2023/04/01 03:32:16;;;;;;;;;0.00;0.00;;;;;-147.17;100.00;-15917.19;5054273;28;51353;-58
2023/04/01 03:34:41;;;;;;;;;1.00;0.00;;;;;-147.17;100.00;-15917.19;5054009;28;51357;-59
2023/04/01 03:37:07;;;;;;;;;0.67;0.00;;;;;-147.17;100.00;-15917.19;5048470;28;50983;-59
2023/04/01 03:39:32;;;;;;;;;0.00;0.00;;;;;-147.17;100.00;-15917.19;5043300;28;51582;-59
2023/04/01 03:41:58;;;;;;;;;0.00;0.00;;;;;-147.17;100.00;-15917.19;5040272;28;51109;-59
2023/04/01 03:44:23;;;;;;;;;1.00;0.33;;;;;-147.17;100.00;-15917.19;5038392;28;51085;-60
2023/04/01 03:46:49;;;;;;;;;1.00;0.00;;;;;-147.17;100.00;-15917.19;5050336;28;51171;-59
2023/04/01 03:49:14;;;;;;;;;2.00;0.33;;;;;-147.17;100.00;-15917.19;5050484;28;51226;-59
2023/04/01 03:51:43;;;;;;;;;2.00;1.67;;;;;-147.17;100.00;-15917.19;5047339;28;51216;-59
2023/04/01 03:54:09;;;;;;;;;0.00;0.00;;;;;-147.17;100.00;-15917.19;5053721;28;51227;-59
2023/04/01 03:56:35;;;;;;;;;1.00;0.00;;;;;-147.17;100.00;-15917.19;5047837;28;51191;-59
2023/04/01 03:59:06;;;;;;;;;0.00;0.00;;;;;-147.17;100.00;-15917.19;5038255;28;51065;-59
2023/04/01 04:01:32;;;;;;;;;1.00;1.00;;;;;-147.17;100.00;-15917.19;5045664;28;51324;-58
2023/04/01 04:03:58;;;;;;;;;1.33;1.00;;;;;-147.17;100.00;-15917.19;5052577;28;51088;-59
2023/04/01 04:06:24;;;;;;;;;0.00;0.00;;;;;-147.17;100.00;-15917.19;5049913;28;51097;-58
2023/04/01 04:08:49;;;;;;;;;1.00;0.00;;;;;-147.17;100.00;-15917.19;5053986;28;51126;-58
2023/04/01 04:11:15;;;;;;;;;0.00;0.00;;;;;-147.17;100.00;-15917.19;5054406;28;51007;-59
2023/04/01 04:13:42;;;;;;;;;1.00;0.00;;;;;-147.17;100.00;-15917.19;5048935;28;52477;-59
2023/04/01 04:16:09;;;;;;;;;0.67;0.00;;;;;-147.17;100.00;-15917.19;5039165;28;51105;-58
2023/04/01 04:18:35;;;;;;;;;0.00;0.00;;;;;-147.17;100.00;-15917.19;5045944;28;51270;-59
2023/04/01 04:21:00;;;;;;;;;0.33;0.00;;;;;-147.17;100.00;-15917.19;5039108;28;51109;-58
2023/04/01 04:23:25;;;;;;;;;0.00;0.00;;;;;-147.17;100.00;-15917.19;5052649;28;51047;-59
2023/04/01 04:25:59;;;;;;;;;0.00;0.00;;;;;-147.17;100.00;-15917.19;5050708;28;51829;-59
2023/04/01 04:28:26;;;;;;;;;0.00;0.00;;;;;-147.17;100.00;-15917.19;5034269;28;50909;-58
2023/04/01 04:30:53;;;;;;;;;1.00;0.00;;;;;-147.17;100.00;-15917.19;5042388;28;51077;-58
2023/04/01 04:33:18;;;;;;;;;1.00;0.00;;;;;-147.17;100.00;-15917.19;5048541;28;52306;-58
2023/04/01 04:35:44;;;;;;;;;0.00;0.00;;;;;-147.17;100.00;-15917.19;5041472;28;51052;-58
2023/04/01 04:38:09;;;;;;;;;0.00;0.00;;;;;-147.17;100.00;-15917.19;5042642;28;51323;-58
2023/04/01 04:40:39;;;;;;;;;0.00;0.00;;;;;-147.17;100.00;-15917.19;5040914;28;51173;-61
2023/04/01 04:43:05;;;;;;;;;1.00;0.00;;;;;-147.17;100.00;-15917.19;5042014;28;52246;-60
2023/04/01 04:45:30;;;;;;;;;0.00;0.00;;;;;-147.17;100.00;-15917.19;5034796;28;51023;-59
2023/04/01 04:47:56;;;;;;;;;0.00;0.00;;;;;-147.17;100.00;-15917.19;5046019;28;51089;-59
2023/04/01 04:50:21;;;;;;;;;1.00;1.00;;;;;-147.17;100.00;-15917.19;5049336;28;51114;-59
2023/04/01 04:52:47;;;;;;;;;0.00;0.00;;;;;-147.17;100.00;-15917.19;5036691;28;51135;-58
2023/04/01 04:55:12;;;;;;;;;0.67;0.67;;;;;-147.17;100.00;-15917.19;5052931;28;51299;-59
2023/04/01 04:57:37;;;;;;;;;2.00;1.00;;;;;-147.17;100.00;-15917.19;5048018;28;51639;-59
2023/04/01 05:00:03;;;;;;;;;1.00;0.33;;;;;-147.17;100.00;-15917.19;5037563;28;51174;-59
2023/04/01 05:02:29;;;;;;;;;2.00;1.00;;;;;-147.17;100.00;-15917.19;5042258;28;52780;-58
2023/04/01 05:04:54;;;;;;;;;1.33;0.00;;;;;-147.17;100.00;-15917.19;5033748;28;51799;-58
2023/04/01 05:07:19;;;;;;;;;1.00;0.00;;;;;-147.17;100.00;-15917.19;5039836;28;51181;-58
2023/04/01 05:09:45;;;;;;;;;1.00;1.00;;;;;-147.17;100.00;-15917.19;5032367;28;51191;-59
2023/04/01 05:12:12;;;;;;;;;1.67;1.00;;;;;-147.17;100.00;-15917.19;5039265;28;52563;-59
2023/04/01 05:14:38;;;;;;;;;1.00;1.00;;;;;-147.17;100.00;-15917.19;5047921;28;51125;-58
2023/04/01 05:17:03;;;;;;;;;0.00;0.00;;;;;-147.17;100.00;-15917.19;5038156;28;51260;-57
2023/04/01 05:19:29;;;;;;;;;0.00;0.00;;;;;-147.17;100.00;-15917.19;5051827;28;50997;-58
2023/04/01 05:21:54;;;;;;;;;0.00;0.00;;;;;-147.17;100.00;-15917.19;5050526;28;52544;-58
2023/04/01 05:24:19;;;;;;;;;0.00;0.00;;;;;-147.17;100.00;-15917.19;5035146;28;50970;-58
2023/04/01 05:26:45;;;;;;;;;0.00;0.00;;;;;-147.17;100.00;-15917.19;5039404;28;51050;-60
2023/04/01 05:29:10;;;;;;;;;0.00;0.00;;;;;-147.17;100.00;-15917.19;5053918;28;51134;-59
2023/04/01 05:31:35;;;;;;;;;1.00;1.00;;;;;-147.17;100.00;-15917.19;5040880;28;51127;-59
2023/04/01 05:34:01;;;;;;;;;0.67;0.67;;;;;-147.17;100.00;-15917.19;5052836;28;50897;-60
2023/04/01 05:36:26;;;;;;;;;0.00;0.00;;;;;-147.17;100.00;-15917.19;5041488;28;51671;-59
2023/04/01 05:38:55;;;;;;;;;0.00;0.00;;;;;-147.17;100.00;-15917.19;5053424;28;50950;-60
2023/04/01 05:41:20;;;;;;;;;0.00;0.00;;;;;-147.17;100.00;-15917.19;5043929;28;51177;-59
2023/04/01 05:43:45;;;;;;;;;1.00;0.00;;;;;-147.17;100.00;-15917.19;5060795;28;57789;-59
2023/04/01 05:46:11;;;;;;;;;0.00;0.00;;;;;-147.17;100.00;-15917.19;5042063;28;51038;-59
2023/04/01 05:48:36;;;;;;;;;0.00;0.00;;;;;-147.17;100.00;-15917.19;5051528;28;51283;-59
2023/04/01 05:51:03;;;;;;;;;0.00;0.00;;;;;-147.17;100.00;-15917.19;5037170;28;51529;-60
2023/04/01 05:53:28;;;;;;;;;2.00;2.00;;;;;-147.17;100.00;-15917.19;5036081;28;51089;-59
2023/04/01 05:55:54;;;;;;;;;1.00;1.00;;;;;-147.17;100.00;-15917.19;5045205;28;50991;-65
2023/04/01 05:58:19;;;;;;;;;0.67;0.00;;;;;-147.17;100.00;-15917.19;5045350;28;51382;-59
2023/04/01 06:00:44;;;;;;;;;0.00;0.00;;;;;-147.17;100.00;-15917.19;5038932;28;52409;-59
2023/04/01 06:03:10;;;;;;;;;1.00;0.00;;;;;-147.17;100.00;-15917.19;5042418;28;50879;-59
2023/04/01 06:05:44;;;;;;;;;2.00;1.00;;;;;-147.17;100.00;-15917.19;5036103;28;51514;-58
2023/04/01 06:08:17;;;;;;;;;0.00;0.00;;;;;-147.17;100.00;-15917.19;5041725;28;51347;-57
2023/04/01 06:10:59;;;;;;;;;1.00;0.00;;;;;-147.17;100.00;-15917.19;5039899;28;52355;-58
2023/04/01 06:14:00;;;;;;;;;0.00;0.00;;;;;-147.17;100.00;-15917.19;5048853;28;51126;-58
2023/04/01 06:16:54;;;;;;;;;0.00;0.00;;;;;-147.17;100.00;-15917.19;5042973;28;51164;-58
2023/04/01 06:19:42;;;;;;;;;0.00;0.00;;;;;-147.17;100.00;-15917.19;5044563;28;51023;-58
2023/04/01 06:22:35;;;;;;;;;1.00;1.00;;;;;-147.17;100.00;-15917.19;5040364;28;51145;-57
2023/04/01 06:25:31;;;;;;;;;1.00;0.00;;;;;-147.17;100.00;-15917.19;5051637;28;51145;-58
2023/04/01 06:28:21;;;;;;;;;0.33;0.00;;;;;-147.17;100.00;-15917.19;5046993;28;51244;-57
2023/04/01 06:30:58;;;;;;;;;17.25;14.75;;;;;-147.17;100.00;-15917.19;5048951;28;51257;-59
2023/04/01 06:33:37;;;;;;;;;1.00;0.00;;;;;-147.17;100.00;-15917.19;5039346;28;51778;-59
2023/04/01 06:36:25;;;;;;;;;2.33;1.00;;;;;-147.17;100.00;-15917.19;5031647;28;51159;-57
2023/04/01 06:39:11;;;;;;;;;0.00;0.00;;;;;-147.17;100.00;-15917.19;5049312;28;51350;-57
2023/04/01 06:41:57;;;;;;;;;0.00;0.00;;;;;-147.17;100.00;-15917.19;5031786;28;51246;-58
2023/04/01 06:44:50;;;;;;;;;0.00;0.00;;;;;-147.17;100.00;-15917.19;5038060;28;51856;-59
2023/04/01 06:47:21;;;;;;;;;1.00;1.00;;;;;-147.17;100.00;-15917.19;5049743;28;53114;-60
2023/04/01 06:50:26;;;;;;;;;2.00;0.00;;;;;-147.17;100.00;-15917.19;5044585;28;51247;-58
2023/04/01 06:53:10;;;;;;;;;1.00;0.00;;;;;-147.17;100.00;-15917.19;5041613;28;51299;-58
2023/04/01 06:55:46;;;;;;;;;0.67;0.00;;;;;-147.17;100.00;-15917.19;5033222;28;51072;-58
2023/04/01 06:58:50;;;;;;;;;1.33;0.67;;;;;-147.17;100.00;-15917.19;5043946;28;51238;-58
2023/04/01 07:01:37;;;;;;;;;0.00;0.00;;;;;-147.17;100.00;-15917.19;5022030;28;51312;-60
2023/04/01 07:04:14;;;;;;;;;0.33;0.00;;;;;-147.17;100.00;-15917.19;5046934;28;51561;-59
2023/04/01 07:06:46;;;;;;;;;1.00;1.00;;;;;-147.17;100.00;-15917.19;5044995;28;51882;-60
2023/04/01 07:09:21;;;;;;;;;0.33;0.00;;;;;-147.17;100.00;-15917.19;5041325;28;51137;-59
2023/04/01 07:11:47;;;;;;;;;0.00;0.00;;;;;-147.17;100.00;-15917.19;5039140;28;51149;-58
2023/04/01 07:14:28;;;;;;;;;2.00;0.67;;;;;-147.17;100.00;-15917.19;5051021;28;50907;-58
2023/04/01 07:17:06;;;;;;;;;0.00;0.00;;;;;-147.17;100.00;-15917.19;5046137;28;51184;-59
2023/04/01 07:19:54;;;;;;;;;0.00;0.00;;;;;-147.17;100.00;-15917.19;5043002;28;51334;-59
2023/04/01 07:22:43;;;;;;;;;1.00;1.00;;;;;-147.17;100.00;-15917.19;5037198;28;51134;-59
2023/04/01 07:25:19;;;;;;;;;0.00;0.00;;;;;-147.17;100.00;-15917.19;5042586;28;51125;-59
2023/04/01 07:27:45;;;;;;;;;0.67;0.00;;;;;-147.17;100.00;-15917.19;5046905;28;51203;-58
2023/04/01 07:30:23;;;;;;;;;0.67;0.67;;;;;-147.17;100.00;-15917.19;5041434;28;51161;-59
2023/04/01 07:33:07;;;;;;;;;4.00;3.00;;;;;-147.17;100.00;-15917.19;5031315;28;51548;-59
2023/04/01 07:35:51;;;;;;;;;0.00;0.00;;;;;-147.17;100.00;-15917.19;5047638;28;51224;-60
2023/04/01 07:38:40;;;;;;;;;2.00;1.00;;;;;-147.17;100.00;-15917.19;5048380;28;51257;-60
2023/04/01 07:55:10;;;;;;;;;0.00;0.00;;;;;-147.17;100.00;-15917.19;5044964;28;51379;-60
2023/04/01 07:57:49;;;;;;;;;2.00;1.00;;;;;-147.17;100.00;-15917.19;5008053;28;50972;-61
2023/04/01 08:00:22;;;;;;;;;0.33;0.33;;;;;-147.17;100.00;-15917.19;5013320;28;51460;-61
2023/04/01 08:03:29;;;;;;;;;2.00;1.00;;;;;-147.17;100.00;-15917.19;5026604;28;52723;-61
2023/04/01 08:06:00;;;;;;;;;1.00;0.67;;;;;-147.17;100.00;-15917.19;5029197;28;51064;-61
2023/04/01 08:08:25;;;;;;;;;1.00;1.00;;;;;-147.17;100.00;-15917.19;5026888;28;51121;-61
2023/04/01 08:10:57;;;;;;;;;0.67;0.67;;;;;-147.17;100.00;-15917.19;5028039;28;51326;-60
2023/04/01 08:13:39;;;;;;;;;0.00;0.00;;;;;-147.17;100.00;-15917.19;5027689;28;51157;-61
2023/04/01 08:16:17;;;;;;;;;0.67;0.67;;;;;-147.17;100.00;-15917.19;5023455;28;51346;-61
2023/04/01 08:19:00;;;;;;;;;0.00;0.00;;;;;-147.17;100.00;-15917.19;5010909;28;51170;-61
2023/04/01 08:21:32;;;;;;;;;1.00;0.67;;;;;-147.17;100.00;-15917.19;5010033;28;51658;-60
2023/04/01 08:24:05;;;;;;;;;0.00;0.00;;;;;-147.17;100.00;-15172.50;5006832;28;51199;-60
2023/04/01 08:26:46;;;;;;;;;0.00;0.00;;;;;-147.17;100.00;-15668.00;5015945;28;51767;-62
2023/04/01 08:29:20;;;;;;;;;1.00;1.00;;;;;-147.17;100.00;-15420.25;5009228;28;52992;-63
2023/04/01 08:32:03;;;;;;;;;0.33;0.33;;;;;-147.17;100.00;-14924.75;5017255;28;51093;-62
2023/04/01 08:34:36;;;;;;;;;1.00;1.00;;;;;-147.17;100.00;-15172.50;5011782;28;51569;-62
2023/04/01 08:37:11;;;;;;;;;1.00;1.00;;;;;-147.17;100.00;-15172.50;5011244;28;51218;-61
2023/04/01 08:39:58;;;;;;;;;1.00;1.00;;;;;-147.17;100.00;-15420.25;5012976;28;51238;-61
2023/04/01 08:42:48;;;;;;;;;0.33;0.00;;;;;-147.17;100.00;-12694.06;5019557;28;51556;-61
2023/04/01 08:45:37;;;;;;;;;0.67;0.67;;;;;-147.17;100.00;-13685.63;5014039;28;51798;-62
2023/04/01 08:48:27;;;;;;;;;0.00;0.00;;;;;-147.17;100.00;-13189.88;5014240;28;51375;-60
2023/04/01 08:51:03;;;;;;;;;0.33;0.00;;;;;-147.17;100.00;-13933.50;5011723;28;51113;-61
2023/04/01 08:53:38;;;;;;;;;1.00;1.00;;;;;-147.17;100.00;-12941.97;5012302;28;51064;-62
2023/04/01 08:56:09;;;;;;;;;1.00;1.00;;;;;-147.17;100.00;-13189.88;4996463;28;52255;-61
2023/04/01 08:58:58;;;;;;;;;0.00;0.00;;;;;-147.17;100.00;-14429.16;4998388;28;51799;-62
2023/04/01 09:02:04;;;;;;;;;1.33;1.00;;;;;-147.17;100.00;-14676.94;4999316;28;52035;-61
2023/04/01 09:04:52;;;;;;;;;0.00;0.00;;;;;-147.17;100.00;-14429.16;4994783;28;51188;-62
2023/04/01 09:07:46;;;;;;;;;1.33;1.33;;;;;-147.17;100.00;-14429.16;4996398;28;51607;-62
2023/04/01 09:10:42;;;;;;;;;1.00;0.00;;;;;-147.17;100.00;-14181.31;4996301;28;51666;-60
2023/04/01 09:13:32;;;;;;;;;3.33;1.00;;;;;-147.17;100.00;-13437.75;4996374;28;51240;-61
2023/04/01 09:16:22;;;;;;;;;3.00;1.00;;;;;-147.17;100.00;-10958.19;5002372;28;51253;-61
2023/04/01 09:19:09;;;;;;;;;0.00;0.00;;;;;-147.17;100.00;-11454.25;4997264;28;52554;-62
2023/04/01 09:21:49;;;;;;;;;2.00;2.00;;;;;-147.17;100.00;-12198.19;4997701;28;51301;-61
2023/04/01 09:24:56;;;;;;;;;1.00;1.00;;;;;-147.17;100.00;-11454.25;5001010;28;51260;-61
2023/04/01 09:27:37;;;;;;;;;1.00;1.00;;;;;-147.17;100.00;-7235.84;4993575;28;51260;-62
2023/04/01 09:30:18;;;;;;;;;1.00;1.00;;;;;-147.17;100.00;-1521.19;4998610;28;53695;-61
2023/04/01 09:33:12;;;;;;;;;1.00;1.00;;;;;-147.17;100.00;-2018.47;4995974;28;51284;-61
2023/04/01 09:36:33;;;;;;;;;3.00;2.67;;;;;-147.17;100.00;-2764.22;5005229;28;51357;-61
2023/04/01 09:39:25;;;;;;;;;0.00;0.00;;;;;-147.17;100.00;-2515.66;4992715;28;52722;-60
2023/04/01 09:42:08;;;;;;;;;2.33;1.33;;;;;-147.17;100.00;-3758.38;4999114;28;53200;-61
2023/04/01 09:44:37;;;;;;;;;1.00;1.00;;;;;-147.17;100.00;-5000.69;4997824;28;51227;-61
2023/04/01 09:47:14;;;;;;;;;1.33;1.00;;;;;-147.17;100.00;-3758.38;5008653;22;51266;-60
2023/04/01 09:49:52;;;;;;;;;2.00;1.67;;;;;-147.17;100.00;-5497.50;5016620;28;51047;-61
2023/04/01 09:52:32;;;;;;;;;1.00;0.00;;;;;-147.17;100.00;966.09;5014551;28;51154;-61
2023/04/01 09:55:16;;;;;;;;;0.00;0.00;;;;;-147.17;100.00;7191.28;5003028;28;51305;-60
2023/04/01 09:58:02;;;;;;;;;0.00;0.00;;;;;-147.17;100.00;6692.91;5003814;28;51212;-61
2023/04/01 10:00:55;;;;;;;;;1.67;1.00;;;;;-147.17;100.00;7191.28;5009846;28;51365;-60
2023/04/01 10:03:54;;;;;;;;;2.00;1.67;;;;;-147.17;100.00;4201.94;5009606;28;51082;-62
2023/04/01 10:06:41;;;;;;;;;1.00;1.00;;;;;-147.17;100.00;4450.97;5008701;28;51240;-61
2023/04/01 10:09:33;;;;;;;;;2.00;2.00;;;;;-147.17;100.00;5447.22;5009841;28;51144;-61
2023/04/01 10:12:31;;;;;;;;;1.00;1.00;;;;;-147.17;100.00;6194.59;5008308;28;51115;-61
2023/04/01 10:15:23;;;;;;;;;1.00;0.67;;;;;-147.17;100.00;5696.34;5008986;28;51461;-61
2023/04/01 10:18:07;;;;;;;;;2.00;1.00;;;;;-147.17;100.00;7440.50;5007019;28;50974;-62
2023/04/01 10:20:51;;;;;;;;;2.00;1.00;;;;;-147.17;100.00;9434.84;5011248;28;50924;-60
2023/04/01 10:23:30;;;;;;;;;0.00;0.00;;;;;-147.17;100.00;8686.84;5013077;28;51184;-61
2023/04/01 10:26:19;;;;;;;;;2.00;1.00;;;;;-147.17;100.00;8936.16;5012043;28;52079;-62
2023/04/01 10:29:24;;;;;;;;;1.00;1.00;;;;;-147.17;100.00;10931.25;5006195;28;51189;-60
2023/04/01 10:32:11;;;;;;;;;1.00;1.00;;;;;-147.17;100.00;6692.91;5012770;28;51768;-60
2023/04/01 10:35:10;;;;;;;;;1.33;1.00;;;;;-147.17;100.00;14425.13;5011783;28;51073;-61
2023/04/01 10:37:57;;;;;;;;;2.00;2.00;;;;;-147.17;100.00;16173.25;5011757;28;52059;-62
2023/04/01 10:40:51;;;;;;;;;1.00;1.00;;;;;-147.17;100.00;16922.66;5012325;28;50959;-61
2023/04/01 10:43:59;;;;;;;;;3.00;3.00;;;;;-147.17;100.00;16922.66;5011637;28;51088;-61
2023/04/01 10:46:52;;;;;;;;;3.67;3.00;;;;;-147.17;100.00;20171.88;5011698;28;50905;-60
2023/04/01 10:49:24;;;;;;;;;2.33;1.00;;;;;-147.17;100.00;25428.31;5007210;28;51130;-60
2023/04/01 10:52:26;;;;;;;;;2.67;2.00;;;;;-147.17;100.00;27553.22;5011228;28;51167;-63
2023/04/01 10:54:54;;;;;;;;;2.00;2.00;;;;;-147.17;100.00;18172.06;5004680;28;51233;-61
2023/04/01 10:57:58;;;;;;;;;1.33;1.00;;;;;-147.17;100.00;29332.69;5011552;28;51153;-60
2023/04/01 11:00:46;;;;;;;;;1.33;1.00;;;;;-147.17;100.00;35940.88;5006836;28;54325;-61
2023/04/01 11:03:18;;;;;;;;;2.67;1.00;;;;;-147.17;100.00;34650.50;5005969;28;51243;-60
2023/04/01 11:06:11;;;;;;;;;3.33;3.00;;;;;-147.17;100.00;34438.75;5012921;28;51014;-62
2023/04/01 11:09:10;;;;;;;;;1.33;1.33;;;;;-147.17;100.00;36694.09;5004055;28;51125;-61
2023/04/01 11:12:11;;;;;;;;;2.33;2.33;;;;;-147.17;100.00;34970.09;5011854;28;51821;-61
2023/04/01 11:14:42;;;;;;;;;2.67;2.00;;;;;-147.17;100.00;34019.19;5012240;28;51114;-60
2023/04/01 11:17:19;;;;;;;;;0.33;0.33;;;;;-147.17;100.00;36703.91;5010741;28;51093;-60
2023/04/01 11:19:59;;;;;;;;;3.00;1.33;;;;;-147.17;100.00;37308.19;5012407;28;51322;-62
2023/04/01 11:23:04;;;;;;;;;1.67;0.67;;;;;-147.17;100.00;36796.13;5022498;28;52038;-60
2023/04/01 11:25:59;;;;;;;;;2.33;1.67;;;;;-147.17;100.00;39610.34;5010874;28;51173;-61
2023/04/01 11:29:03;;;;;;;;;2.00;2.00;;;;;-147.17;100.00;40391.75;5007536;28;50998;-61
2023/04/01 11:31:42;;;;;;;;;12.33;12.33;;;;;-147.17;100.00;40434.97;5001457;28;50932;-60
2023/04/01 11:34:19;;;;;;;;;1.67;1.67;;;;;-147.17;100.00;38495.41;5010409;28;51462;-60
2023/04/01 11:37:05;;;;;;;;;1.00;1.00;;;;;-147.17;100.00;40405.50;5008516;28;51161;-61
2023/04/01 11:40:15;;;;;;;;;1.67;1.67;;;;;-147.17;100.00;41642.78;5000849;28;51223;-61
2023/04/01 11:42:57;;;;;;;;;1.33;1.33;;;;;-147.17;100.00;42035.63;4997231;28;51122;-61
2023/04/01 11:45:39;;;;;;;;;3.33;3.33;;;;;-147.17;100.00;42245.84;5006616;28;51088;-61
2023/04/01 11:48:23;;;;;;;;;1.67;1.67;;;;;-147.17;100.00;42676.09;5010151;28;51025;-61
2023/04/01 11:51:07;;;;;;;;;1.67;1.67;;;;;-147.17;100.00;42513.00;5009735;28;51129;-60
2023/04/01 11:53:48;;;;;;;;;4.33;4.33;;;;;-147.17;100.00;40639.19;5011464;28;51328;-61
2023/04/01 11:56:27;;;;;;;;;0.67;0.67;;;;;-147.17;100.00;37471.03;5005261;28;51912;-61
2023/04/01 11:59:06;;;;;;;;;1.00;1.00;;;;;-147.17;100.00;37060.97;5009444;28;50948;-60